Time;durP1;ratioP1;P1;durP2;ratioP2;P2;SDS_P1;SDS_P2;PMS_P1;PMS_P2;Temp;Humidity;BMP_temperature;BMP_pressure;BME280_temperature;BME280_humidity;BME280_pressure;Samples;Min_cycle;Max_cycle;Signal;HPM_P1;HPM_P2
2022/08/29 07:26:03;;;;;;;15.93;4.38;;;;;;;20.85;58.77;96900.97;2108579;28;20937;-63
2022/08/29 07:27:04;;;;;;;14.83;4.60;;;;;;;21.35;58.07;96904.84;2070583;28;1233703;-63
2022/08/29 07:28:06;;;;;;;20.77;4.63;;;;;;;21.68;56.95;96906.47;2120437;28;20193;-65
2022/08/29 07:29:16;;;;;;;13.20;4.50;;;;;;;21.73;56.37;96908.75;2120320;28;20284;-63
2022/08/29 07:30:19;;;;;;;15.50;4.25;;;;;;;22.11;55.55;96907.22;2120591;28;20639;-64
2022/08/29 07:50:24;;;;;;;15.05;4.55;;;;;;;23.06;54.15;96907.72;2070880;28;1245243;-67
2022/08/29 07:51:27;;;;;;;16.35;4.68;;;;;;;23.60;53.41;96907.25;2120787;28;20185;-67
2022/08/29 07:52:28;;;;;;;18.45;4.63;;;;;;;23.53;52.79;96900.81;2126870;27;20821;-64
2022/08/29 07:53:34;;;;;;;14.20;5.38;;;;;;;23.81;52.51;96901.72;2129263;27;20196;-65
2022/08/29 07:54:35;;;;;;;16.52;4.30;;;;;;;24.14;51.27;96904.88;2120013;28;20193;-62
2022/08/29 07:55:40;;;;;;;13.93;4.75;;;;;;;24.34;50.59;96908.28;2120947;27;20651;-62
2022/08/29 07:56:43;;;;;;;14.73;4.90;;;;;;;24.55;50.38;96913.34;2128742;27;20189;-62
2022/08/29 07:57:47;;;;;;;15.05;4.68;;;;;;;24.32;50.22;96914.75;2128921;27;20232;-62
2022/08/29 07:58:48;;;;;;;10.68;4.18;;;;;;;24.29;50.61;96914.03;2129210;27;20200;-62
2022/08/29 07:59:50;;;;;;;12.00;5.45;;;;;;;23.77;51.75;96908.34;2129078;27;20242;-62
2022/08/29 08:00:51;;;;;;;15.82;4.50;;;;;;;24.19;51.16;96907.91;2129212;27;20201;-62
2022/08/29 08:01:53;;;;;;;20.90;5.03;;;;;;;24.19;50.95;96907.06;2128310;27;20643;-62
2022/08/29 08:02:55;;;;;;;9.38;4.22;;;;;;;24.40;50.61;96909.50;2129147;27;20260;-62
2022/08/29 08:17:15;;;;;;;15.80;5.40;;;;;;;23.89;52.57;96903.66;2084493;28;20555;-61
2022/08/29 08:18:16;;;;;;;30.67;5.43;;;;;;;23.75;53.24;96899.63;2082631;28;20201;-62
2022/08/29 08:19:18;;;;;;;15.55;4.63;;;;;;;23.81;53.10;96901.72;2082940;28;20193;-62
2022/08/29 08:20:19;;;;;;;31.38;5.60;;;;;;;24.09;52.59;96905.28;2082295;28;20579;-61
2022/08/29 08:21:22;;;;;;;13.90;5.18;;;;;;;24.48;52.83;96909.59;2082784;28;20209;-62
2022/08/29 08:22:23;;;;;;;16.55;5.45;;;;;;;24.45;52.44;96909.88;2083027;28;20212;-61
2022/08/29 08:23:24;;;;;;;19.40;5.10;;;;;;;24.73;52.21;96904.53;2083948;28;20192;-62
2022/08/29 08:24:26;;;;;;;14.98;5.68;;;;;;;25.07;50.87;96912.72;2084651;28;20334;-62
2022/08/29 08:25:28;;;;;;;9.43;4.80;;;;;;;24.24;52.12;96891.44;2082392;28;20200;-61
2022/08/29 08:26:29;;;;;;;11.45;5.05;;;;;;;23.11;55.18;96900.13;2081989;28;20205;-62
2022/08/29 08:27:31;;;;;;;12.23;5.47;;;;;;;23.40;55.29;96906.44;2073922;28;20228;-62
2022/08/29 08:28:33;;;;;;;19.10;5.30;;;;;;;24.05;54.02;96903.06;2070301;28;20256;-62
2022/08/29 08:29:35;;;;;;;10.20;4.82;;;;;;;24.75;52.58;96911.41;2081033;28;20219;-61
2022/08/29 08:30:36;;;;;;;15.88;5.68;;;;;;;25.08;51.69;96900.22;2081145;28;20692;-62
2022/08/29 08:31:48;;;;;;;13.43;4.72;;;;;;;25.23;50.60;96913.84;2080963;28;20606;-61
2022/08/29 08:32:49;;;;;;;8.35;4.90;;;;;;;25.02;51.12;96915.00;2083493;28;20215;-62
2022/08/29 08:33:55;;;;;;;10.90;4.75;;;;;;;25.16;50.33;96912.81;2082816;28;20192;-62
2022/08/29 08:34:56;;;;;;;9.48;5.55;;;;;;;24.16;52.47;96904.72;2081347;28;20553;-61
2022/08/29 08:36:04;;;;;;;10.80;5.05;;;;;;;24.14;53.19;96894.19;2081187;28;20486;-62
2022/08/29 08:37:07;;;;;;;11.68;5.50;;;;;;;24.77;52.86;96912.13;2079971;28;20221;-61
2022/08/29 08:38:09;;;;;;;12.55;5.50;;;;;;;24.40;52.62;96909.50;2081867;28;20199;-63
2022/08/29 08:52:51;;;;;;;15.77;5.82;;;;;;;26.53;47.48;96916.69;2079441;28;20579;-63
2022/08/29 08:53:56;;;;;;;17.35;4.97;;;;;;;25.89;48.42;96914.34;2072931;28;20703;-65
2022/08/29 08:55:08;;;;;;;13.60;5.25;;;;;;;26.06;48.67;96899.25;2071888;28;20212;-65
2022/08/29 08:56:43;;;;;;;8.48;5.20;;;;;;;26.31;48.11;96915.41;2075234;28;20189;-64
2022/08/29 08:57:53;;;;;;;10.70;6.18;;;;;;;24.84;50.17;96912.34;2066246;28;20214;-62
2022/08/29 08:59:12;;;;;;;11.75;5.90;;;;;;;25.14;50.19;96912.09;2065782;28;20202;-62
2022/08/29 09:00:14;;;;;;;14.40;5.57;;;;;;;25.74;49.43;96911.44;2065176;28;20217;-61
2022/08/29 09:01:27;;;;;;;11.23;5.10;;;;;;;25.07;50.69;96922.56;2065262;28;20233;-62
2022/08/29 09:09:20;;;;;;;10.48;5.50;;;;;;;25.37;49.61;96920.50;2063557;28;20212;-62
2022/08/29 09:10:56;;;;;;;13.57;5.63;;;;;;;24.90;51.13;96926.91;2063845;28;20199;-64
2022/08/29 09:12:18;;;;;;;17.92;5.50;;;;;;;23.91;52.90;96923.91;2064407;28;20288;-62
2022/08/29 09:13:40;;;;;;;17.10;4.80;;;;;;;25.14;51.30;96931.66;2065779;28;20209;-62
2022/08/29 09:14:56;;;;;;;9.63;4.65;;;;;;;25.82;49.37;96927.50;2066891;28;20705;-62
2022/08/29 09:16:07;;;;;;;10.13;5.03;;;;;;;26.28;48.57;96916.56;2062191;28;20645;-62
2022/08/29 09:17:18;;;;;;;8.13;3.88;;;;;;;26.35;47.84;96908.75;2066304;28;20283;-62
2022/08/29 09:18:33;;;;;;;23.33;5.78;;;;;;;25.56;48.69;96914.13;2071845;28;20208;-62
2022/08/29 09:19:36;;;;;;;11.80;4.45;;;;;;;24.60;49.66;96923.56;2071369;28;20208;-62
2022/08/29 09:26:03;;;;;;;14.07;4.68;;;;;;;27.15;46.36;96929.72;2068584;28;20262;-62
2022/08/29 09:27:05;;;;;;;15.20;4.57;;;;;;;26.10;47.03;96932.72;2066708;28;20593;-62
2022/08/29 09:28:08;;;;;;;10.95;4.85;;;;;;;25.08;48.32;96927.75;2066306;28;20206;-62
2022/08/29 09:29:12;;;;;;;10.98;5.15;;;;;;;25.22;48.19;96910.34;2066995;28;20194;-62
2022/08/29 09:30:27;;;;;;;10.98;4.90;;;;;;;26.05;47.25;96925.16;2063375;28;20238;-62
2022/08/29 09:31:32;;;;;;;13.45;4.50;;;;;;;26.85;46.77;96925.81;2065930;28;20649;-62
2022/08/29 09:32:50;;;;;;;8.20;4.57;;;;;;;26.13;48.38;96929.75;2065447;28;20241;-62
2022/08/29 09:33:53;;;;;;;15.65;4.20;;;;;;;26.45;46.96;96917.50;2066506;28;20198;-62
2022/08/29 09:34:55;;;;;;;18.08;4.68;;;;;;;25.81;48.28;96928.50;2066619;28;20205;-63
2022/08/29 09:36:15;;;;;;;7.18;4.10;;;;;;;24.22;51.38;96920.94;2063128;28;20201;-62
2022/08/29 09:37:30;;;;;;;13.93;4.93;;;;;;;26.04;48.14;96930.63;2065807;28;20662;-62
2022/08/29 09:38:31;;;;;;;8.77;3.67;;;;;;;26.51;47.20;96924.03;2064459;28;20205;-62
2022/08/29 09:39:33;;;;;;;10.60;4.70;;;;;;;27.11;45.21;96928.38;2067374;28;20194;-62
2022/08/29 09:40:51;;;;;;;17.40;4.10;;;;;;;26.93;45.80;96922.31;2066429;28;20197;-62
2022/08/29 09:42:16;;;;;;;11.07;3.83;;;;;;;27.38;44.61;96905.75;2064809;28;20194;-63
2022/08/29 09:43:22;;;;;;;12.93;5.10;;;;;;;25.47;49.06;96909.72;2064728;28;20645;-62
2022/08/29 09:44:30;;;;;;;12.45;4.07;;;;;;;26.15;48.37;96934.94;2064640;28;20198;-62
2022/08/29 09:45:32;;;;;;;8.93;3.75;;;;;;;27.14;46.79;96930.72;2064698;28;20206;-62
2022/08/29 09:46:33;;;;;;;10.13;4.10;;;;;;;27.80;45.08;96937.94;2064593;28;20224;-63
2022/08/29 09:47:35;;;;;;;10.10;3.92;;;;;;;26.31;46.25;96932.31;2066569;28;20253;-62
2022/08/29 09:48:49;;;;;;;15.15;4.40;;;;;;;24.85;48.40;96930.03;2066023;28;20661;-62
2022/08/29 09:50:06;;;;;;;11.25;4.15;;;;;;;25.73;47.72;96928.47;2065943;28;20215;-62
2022/08/29 09:51:28;;;;;;;10.05;4.30;;;;;;;27.01;46.29;96925.03;2070005;28;20205;-62
2022/08/29 09:52:31;;;;;;;12.30;4.20;;;;;;;27.13;45.97;96931.72;2063113;28;20223;-62
2022/08/29 09:53:36;;;;;;;16.55;4.35;;;;;;;27.85;45.12;96931.03;2064282;28;20203;-62
2022/08/29 09:54:38;;;;;;;10.75;3.78;;;;;;;28.31;44.65;96916.19;2065631;28;20317;-62
2022/08/29 09:55:43;;;;;;;12.30;4.70;;;;;;;28.31;43.97;96914.31;2061829;28;20214;-61
2022/08/29 09:57:01;;;;;;;13.50;4.30;;;;;;;28.12;44.23;96915.56;2065455;28;20739;-61
2022/08/29 09:58:15;;;;;;;8.32;3.50;;;;;;;28.46;44.09;96918.97;2062556;28;20202;-62
2022/08/29 09:59:25;;;;;;;12.15;4.15;;;;;;;28.68;43.40;96914.69;2064556;28;20194;-62
2022/08/29 10:00:39;;;;;;;12.07;3.88;;;;;;;29.43;41.74;96923.97;2064574;28;20225;-63
2022/08/29 10:01:41;;;;;;;12.35;4.28;;;;;;;29.78;41.57;96910.00;2064893;28;20193;-62
2022/08/29 10:14:08;;;;;;;7.15;3.90;;;;;;;30.04;40.32;96925.75;2062248;28;20559;-62
2022/08/29 10:15:22;;;;;;;4.90;3.00;;;;;;;30.39;39.63;96927.88;2067619;28;20201;-62
2022/08/29 10:18:19;;;;;;;7.37;3.60;;;;;;;30.35;40.04;96924.72;2068534;28;21016;-63
2022/08/29 10:18:46;;;;;;;17.50;4.30;;;;;;;30.26;40.50;96925.84;2066365;28;20432;-64
2022/08/29 10:19:48;;;;;;;9.13;3.57;;;;;;;30.82;39.36;96919.94;2065806;28;20430;-62
2022/08/29 10:21:14;;;;;;;9.47;3.43;;;;;;;31.04;38.47;96917.25;2068357;28;20436;-63
2022/08/29 10:22:35;;;;;;;9.97;3.60;;;;;;;30.78;37.93;96921.34;2069674;28;20466;-62
2022/08/29 10:23:58;;;;;;;9.23;4.20;;;;;;;28.99;41.83;96928.09;2062401;28;20958;-63
2022/08/29 10:25:16;;;;;;;6.50;3.77;;;;;;;30.30;40.26;96933.34;2064743;28;21143;-63
2022/08/29 10:26:45;;;;;;;9.80;3.83;;;;;;;30.94;38.22;96937.28;2069826;28;20431;-63
2022/08/29 10:27:54;;;;;;;10.33;4.00;;;;;;;29.01;41.30;96925.22;2057091;28;21106;-63
2022/08/29 10:29:14;;;;;;;11.23;3.70;;;;;;;27.99;42.23;96928.69;2059201;28;20800;-63
2022/08/29 10:30:28;;;;;;;14.80;4.30;;;;;;;28.34;41.77;96923.88;2060236;28;20433;-63
2022/08/29 10:31:45;;;;;;;11.07;3.93;;;;;;;29.61;40.28;96926.31;2061971;28;20429;-62
2022/08/29 10:56:05;;;;;;;7.43;3.30;;;;;;;31.37;37.97;96920.28;2065943;28;20526;-61
2022/08/29 10:57:08;;;;;;;6.67;3.00;;;;;;;31.79;36.63;96916.91;2050407;28;20454;-62
2022/08/29 10:58:25;;;;;;;8.83;3.50;;;;;;;31.72;36.63;96922.28;2049475;28;20473;-62
2022/08/29 10:59:56;;;;;;;11.43;3.70;;;;;;;31.88;36.66;96913.03;2052687;28;20437;-64
2022/08/29 11:01:27;;;;;;;6.80;3.07;;;;;;;31.56;37.15;96907.97;2052705;28;20645;-62
2022/08/29 11:09:15;;;;;;;4.47;2.87;;;;;;;31.97;36.29;96902.91;2050858;28;20433;-63
2022/08/29 11:10:21;;;;;;;11.60;5.00;;;;;;;32.24;35.68;96906.63;2050259;28;20433;-63
2022/08/29 11:11:26;;;;;;;4.20;3.10;;;;;;;32.14;35.50;96887.22;2051339;28;20434;-63
2022/08/29 11:12:43;;;;;;;17.50;9.73;;;;;;;32.51;35.43;96901.34;2051387;28;20469;-63
2022/08/29 11:13:51;;;;;;;40.57;25.57;;;;;;;32.76;35.07;96901.69;2052801;28;20982;-64
2022/08/29 11:15:02;;;;;;;28.53;22.90;;;;;;;32.67;34.47;96887.47;2051662;28;20436;-65
2022/08/29 11:16:11;;;;;;;26.20;19.87;;;;;;;32.48;35.17;96901.75;2052164;28;20432;-65
2022/08/29 11:17:15;;;;;;;7.90;3.73;;;;;;;32.39;35.27;96891.13;2052713;28;20445;-64
2022/08/29 11:18:30;;;;;;;7.27;3.60;;;;;;;32.20;35.87;96902.66;2051907;28;20437;-64
2022/08/29 11:20:01;;;;;;;5.83;3.17;;;;;;;32.29;35.80;96906.88;2047833;28;20433;-65
2022/08/29 11:21:11;;;;;;;7.10;3.13;;;;;;;31.09;36.80;96898.66;2050204;28;20433;-64
2022/08/29 11:22:21;;;;;;;8.77;3.90;;;;;;;31.26;36.95;96901.91;2049981;28;20476;-65
2022/08/29 11:23:36;;;;;;;12.20;4.37;;;;;;;31.78;36.74;96894.47;2049732;28;20920;-64
2022/08/29 11:24:39;;;;;;;7.33;3.30;;;;;;;31.87;36.52;96897.84;2053941;28;20436;-64
2022/08/29 11:25:47;;;;;;;9.27;3.30;;;;;;;31.23;37.16;96889.66;2046556;28;20984;-64
2022/08/29 11:27:11;;;;;;;7.80;3.03;;;;;;;31.80;36.46;96905.91;2047812;28;20773;-64
2022/08/29 11:28:28;;;;;;;6.73;3.93;;;;;;;32.12;34.94;96903.63;2050452;28;20453;-63
2022/08/29 11:29:44;;;;;;;12.03;3.23;;;;;;;32.59;34.48;96889.53;2050189;28;20445;-64
2022/08/29 11:31:05;;;;;;;5.27;3.23;;;;;;;32.62;34.87;96895.38;2048492;28;20433;-66
2022/08/29 11:32:07;;;;;;;8.43;3.30;;;;;;;32.91;34.74;96900.66;2052401;28;20458;-65
2022/08/29 11:33:29;;;;;;;11.40;3.23;;;;;;;33.31;34.07;96890.75;2053854;28;20465;-64
2022/08/29 11:34:56;;;;;;;9.07;3.90;;;;;;;33.19;33.87;96889.69;2050533;28;20425;-65
2022/08/29 11:36:37;;;;;;;6.00;2.97;;;;;;;32.87;34.96;96892.13;2050092;28;20425;-64
2022/08/29 11:38:20;;;;;;;27.97;16.87;;;;;;;33.42;33.87;96896.59;2045010;28;21469;-65
2022/08/29 11:39:34;;;;;;;16.90;7.30;;;;;;;33.84;32.98;96895.34;2049783;28;20425;-65
2022/08/29 11:40:55;;;;;;;33.03;24.00;;;;;;;33.56;33.17;96895.56;2046625;28;20430;-64
2022/08/29 11:42:21;;;;;;;5.17;3.43;;;;;;;34.05;33.02;96898.03;2051689;28;20494;-64
2022/08/29 11:43:46;;;;;;;7.87;3.37;;;;;;;34.15;31.80;96891.09;2052592;28;20444;-65
2022/08/29 11:44:52;;;;;;;6.17;3.40;;;;;;;29.94;38.20;96885.66;2052984;28;20437;-65
2022/08/29 11:46:02;;;;;;;8.30;3.47;;;;;;;32.08;35.78;96889.69;2053257;28;20428;-65
2022/08/29 11:47:38;;;;;;;7.17;4.17;;;;;;;33.41;33.48;96893.06;2048812;28;20489;-66
2022/08/29 11:48:45;;;;;;;10.27;3.47;;;;;;;33.86;32.66;96881.59;2051240;28;20456;-65
2022/08/29 11:49:50;;;;;;;8.63;3.53;;;;;;;33.50;33.26;96899.09;2051127;28;20500;-65
2022/08/29 11:56:02;;;;;;;7.77;3.47;;;;;;;34.34;32.01;96894.00;2046865;28;20395;-66
2022/08/29 11:57:04;;;;;;;9.57;3.23;;;;;;;34.67;31.95;96888.44;2063768;28;20467;-66
2022/08/29 11:58:11;;;;;;;8.00;3.80;;;;;;;33.88;31.74;96887.66;2064854;28;20495;-65
2022/08/29 11:59:48;;;;;;;17.23;3.87;;;;;;;31.51;35.43;96886.16;2057735;28;20440;-65
2022/08/29 12:00:54;;;;;;;6.43;3.30;;;;;;;32.59;33.84;96884.13;2062108;28;20443;-64
2022/08/29 12:01:59;;;;;;;11.70;3.40;;;;;;;32.14;34.73;96876.41;2066763;28;20424;-64
2022/08/29 12:03:02;;;;;;;11.40;3.60;;;;;;;32.50;34.58;96878.06;2067928;28;20431;-64
2022/08/29 12:04:51;;;;;;;9.13;3.53;;;;;;;32.08;35.29;96875.34;2068975;28;20439;-64
2022/08/29 12:06:33;;;;;;;8.03;3.60;;;;;;;33.13;34.22;96880.53;2067722;28;20443;-66
2022/08/29 12:07:53;;;;;;;6.70;3.10;;;;;;;33.79;32.83;96887.00;2068314;28;20451;-64
2022/08/29 12:09:33;;;;;;;10.30;3.90;;;;;;;33.53;33.25;96877.88;2068349;28;20433;-63
2022/08/29 12:10:51;;;;;;;9.17;4.30;;;;;;;32.65;33.76;96869.81;2066288;28;20454;-64
2022/08/29 12:12:11;;;;;;;6.80;3.20;;;;;;;31.86;34.98;96872.75;2069320;28;20427;-64
2022/08/29 12:13:47;;;;;;;6.10;3.20;;;;;;;32.08;35.19;96827.56;2065715;28;20458;-64
2022/08/29 12:14:51;;;;;;;8.83;3.77;;;;;;;32.12;35.22;96873.09;2064488;28;20432;-64
2022/08/29 12:16:04;;;;;;;12.63;3.37;;;;;;;32.06;34.88;96869.31;2066824;28;20471;-64
2022/08/29 12:17:17;;;;;;;9.07;3.60;;;;;;;32.21;35.37;96880.00;2065607;28;20463;-64
2022/08/29 12:18:19;;;;;;;5.53;3.30;;;;;;;32.71;34.69;96879.81;2068371;28;20423;-64
2022/08/29 12:19:43;;;;;;;7.90;3.17;;;;;;;33.10;33.96;96877.41;2067722;28;20995;-64
2022/08/29 12:20:51;;;;;;;7.67;3.57;;;;;;;33.23;33.58;96872.00;2066402;28;20419;-64
2022/08/29 12:21:57;;;;;;;6.53;3.40;;;;;;;33.84;32.59;96873.69;2067061;28;21125;-64
2022/08/29 12:23:13;;;;;;;7.10;3.47;;;;;;;33.77;32.55;96877.44;2067651;28;20438;-64
2022/08/29 12:24:29;;;;;;;7.37;2.93;;;;;;;34.37;32.36;96862.94;2067911;28;20427;-64
2022/08/29 12:25:37;;;;;;;8.70;4.10;;;;;;;33.31;32.34;96874.53;2058222;28;20479;-64
2022/08/29 12:32:03;;;;;;;6.23;3.30;;;;;;;33.95;32.38;96864.06;2065755;28;20392;-64
2022/08/29 12:33:58;;;;;;;5.87;3.50;;;;;;;34.54;31.20;96858.69;2064980;28;20499;-64
2022/08/29 12:35:26;;;;;;;5.53;2.97;;;;;;;34.73;31.44;96858.78;2069761;28;20530;-64
2022/08/29 12:37:00;;;;;;;4.50;2.33;;;;;;;34.97;30.46;96860.75;2065683;28;20915;-64
2022/08/29 12:38:31;;;;;;;5.87;2.80;;;;;;;35.10;30.41;96867.16;2052596;28;20469;-64
2022/08/29 12:40:05;;;;;;;8.30;3.17;;;;;;;34.75;30.07;96865.66;2053877;28;20430;-64
2022/08/29 12:41:36;;;;;;;8.30;2.70;;;;;;;34.96;30.03;96863.69;2066468;28;20899;-64
2022/08/29 12:43:04;;;;;;;8.23;3.00;;;;;;;33.37;31.70;96860.19;2070929;28;20502;-64
2022/08/29 12:56:05;;;;;;;9.47;3.50;;;;;;;29.59;37.46;96847.63;2065114;28;20393;-63
2022/08/29 12:57:22;;;;;;;8.70;3.73;;;;;;;27.66;39.86;96842.91;2064767;28;20482;-63
2022/08/29 12:58:35;;;;;;;9.57;4.00;;;;;;;27.93;39.60;96841.66;2066287;28;20434;-63
2022/08/29 12:59:43;;;;;;;9.57;3.53;;;;;;;27.38;40.42;96838.75;2057963;28;20428;-66
2022/08/29 13:00:51;;;;;;;7.27;2.97;;;;;;;27.57;40.83;96839.41;2059698;28;20424;-65
2022/08/29 13:01:55;;;;;;;14.48;4.28;;;;;;;27.47;40.57;96831.56;2065345;28;20435;-65
2022/08/29 13:03:04;;;;;;;5.53;3.80;;;;;;;27.25;40.49;96830.41;2065995;28;20230;-65
2022/08/29 13:04:22;;;;;;;8.85;4.38;;;;;;;28.27;38.56;96831.66;2066215;28;20296;-65
2022/08/29 13:05:28;;;;;;;7.30;3.67;;;;;;;28.71;38.96;96836.44;2064727;28;20198;-65
2022/08/29 13:06:32;;;;;;;11.93;3.47;;;;;;;29.16;38.64;96836.59;2074212;28;20632;-65
2022/08/29 13:07:34;;;;;;;5.70;3.90;;;;;;;29.84;37.42;96839.31;2072553;28;20225;-65
2022/08/29 13:08:36;;;;;;;11.90;3.80;;;;;;;29.85;36.86;96832.88;2068136;28;20203;-65
2022/08/29 13:09:51;;;;;;;9.70;3.50;;;;;;;30.65;35.84;96830.38;2066973;28;20264;-65
2022/08/29 13:10:55;;;;;;;14.50;4.25;;;;;;;31.72;34.59;96827.81;2058339;28;20199;-65
2022/08/29 13:12:23;;;;;;;18.17;3.70;;;;;;;31.63;33.93;96824.44;2059082;28;20585;-65
2022/08/29 13:13:26;;;;;;;7.30;3.53;;;;;;;30.58;35.35;96799.88;2064018;28;20459;-65
2022/08/29 13:14:27;;;;;;;7.63;3.30;;;;;;;30.70;36.01;96827.13;2065238;28;20779;-65
2022/08/29 13:15:29;;;;;;;7.93;3.80;;;;;;;30.29;37.05;96823.97;2064355;28;20806;-65
2022/08/29 13:16:33;;;;;;;5.73;3.00;;;;;;;31.09;35.79;96826.69;2065354;28;20428;-64
2022/08/29 13:17:40;;;;;;;8.27;3.90;;;;;;;28.75;38.27;96820.81;2064318;28;20989;-65
2022/08/29 13:18:42;;;;;;;11.37;3.87;;;;;;;29.89;36.96;96817.25;2066257;28;20428;-65
2022/08/29 13:20:41;;;;;;;9.10;3.53;;;;;;;30.53;35.44;96821.97;2067664;28;20428;-64
2022/08/29 13:21:43;;;;;;;14.43;3.53;;;;;;;31.54;34.41;96817.47;2068368;28;20935;-64
2022/08/29 13:22:44;;;;;;;9.60;3.77;;;;;;;32.30;32.74;96818.56;2070422;28;20438;-64
2022/08/29 13:23:57;;;;;;;12.23;3.97;;;;;;;32.92;32.77;96819.34;2069264;28;20419;-65
2022/08/29 13:25:05;;;;;;;8.93;5.47;;;;;;;32.98;32.35;96815.81;2070113;28;20446;-67
2022/08/29 13:26:09;;;;;;;80.57;64.23;;;;;;;33.45;31.92;96831.25;2063824;28;20915;-65
2022/08/29 13:27:18;;;;;;;14.17;10.13;;;;;;;32.67;32.40;96808.25;2063907;28;20966;-64
2022/08/29 13:28:38;;;;;;;22.90;14.10;;;;;;;32.31;33.29;96821.03;2064489;28;20429;-65
2022/08/29 13:29:41;;;;;;;27.17;17.33;;;;;;;31.80;33.56;96803.34;2071155;28;20906;-65
2022/08/29 13:30:43;;;;;;;10.60;6.20;;;;;;;31.58;33.39;96818.78;2062849;28;20442;-64
2022/08/29 13:38:40;;;;;;;8.80;3.20;;;;;;;32.24;32.58;96809.41;2065592;28;20440;-63
2022/08/29 13:39:45;;;;;;;9.50;3.13;;;;;;;31.04;34.05;96796.75;2068582;28;20423;-62
2022/08/29 13:40:48;;;;;;;4.40;3.33;;;;;;;30.42;35.17;96782.06;2068651;28;20428;-63
2022/08/29 13:41:56;;;;;;;5.13;3.33;;;;;;;31.73;33.62;96802.47;2068965;28;21189;-65
2022/08/29 13:42:59;;;;;;;5.57;3.13;;;;;;;32.59;31.98;96803.06;2066918;28;20435;-63
2022/08/29 13:44:01;;;;;;;4.20;2.93;;;;;;;30.97;34.33;96798.59;2063573;28;20425;-62
2022/08/29 13:45:07;;;;;;;7.73;4.00;;;;;;;29.53;36.67;96809.91;2064311;28;20428;-62
2022/08/29 13:46:11;;;;;;;7.73;3.83;;;;;;;30.62;34.16;96799.28;2069124;28;20431;-62
2022/08/29 13:47:24;;;;;;;9.07;3.53;;;;;;;29.42;35.99;96797.72;2069137;28;20464;-62
2022/08/29 13:48:29;;;;;;;9.23;3.40;;;;;;;29.35;36.19;96794.94;2068515;28;20424;-62
2022/08/29 13:49:33;;;;;;;8.23;3.93;;;;;;;29.15;36.44;96800.81;2070647;28;20779;-62
2022/08/29 13:50:35;;;;;;;7.63;3.40;;;;;;;29.25;36.58;96805.09;2069725;28;20811;-62
2022/08/29 13:51:36;;;;;;;5.00;3.60;;;;;;;28.60;37.51;96796.53;2070425;28;20423;-61
2022/08/29 13:52:38;;;;;;;9.17;3.37;;;;;;;29.07;36.77;96800.06;2069989;28;20458;-62
2022/08/29 13:53:39;;;;;;;7.70;3.47;;;;;;;29.47;36.25;96792.63;2071191;28;20462;-62
2022/08/29 13:54:45;;;;;;;6.10;3.10;;;;;;;31.28;34.22;96805.47;2060921;28;20649;-62
2022/08/29 13:55:50;;;;;;;6.70;3.20;;;;;;;32.04;33.51;96802.00;2059656;28;20213;-62
2022/08/29 13:56:54;;;;;;;6.13;3.13;;;;;;;32.94;32.19;96808.31;2065745;28;20521;-63
2022/08/29 13:57:56;;;;;;;7.27;3.43;;;;;;;33.47;31.38;96796.69;2066986;28;20427;-62
2022/08/29 13:58:58;;;;;;;7.43;3.10;;;;;;;33.90;30.86;96800.78;2068373;28;20469;-63
2022/08/29 14:00:00;;;;;;;6.60;3.43;;;;;;;33.91;30.55;96786.19;2069413;28;20424;-63
2022/08/29 14:01:06;;;;;;;4.83;2.97;;;;;;;33.41;31.01;96792.97;2068846;28;20427;-63
2022/08/29 14:02:29;;;;;;;8.70;2.97;;;;;;;33.14;31.15;96794.81;2064536;28;20466;-63
2022/08/29 14:03:30;;;;;;;5.13;3.50;;;;;;;33.78;30.42;96787.88;2065961;28;20420;-63
2022/08/29 14:04:33;;;;;;;9.53;3.77;;;;;;;34.01;29.84;96798.22;2068726;28;20554;-63
2022/08/29 14:05:40;;;;;;;9.50;2.70;;;;;;;32.67;31.70;96801.00;2067844;28;21028;-63
2022/08/29 14:06:41;;;;;;;11.33;3.07;;;;;;;32.96;31.50;96798.97;2068342;28;20432;-63
2022/08/29 14:07:44;;;;;;;6.90;2.73;;;;;;;31.30;33.17;96795.34;2068314;28;20436;-63
2022/08/29 14:08:50;;;;;;;4.80;3.60;;;;;;;29.87;35.46;96797.75;2067700;28;20428;-63
2022/08/29 14:09:53;;;;;;;11.20;3.37;;;;;;;29.66;35.79;96793.94;2067425;28;20423;-63
2022/08/29 14:10:54;;;;;;;15.93;3.50;;;;;;;29.97;35.60;96790.25;2052398;28;20429;-63
2022/08/29 14:11:56;;;;;;;12.47;3.63;;;;;;;29.78;35.71;96787.06;2059628;28;20769;-63
2022/08/29 14:12:57;;;;;;;11.10;3.67;;;;;;;30.31;35.47;96775.31;2073703;28;20439;-65
2022/08/29 14:13:59;;;;;;;7.23;3.50;;;;;;;31.23;33.92;96789.06;2056564;28;20537;-64
2022/08/29 14:15:02;;;;;;;7.00;3.10;;;;;;;30.34;35.03;96790.25;2056270;28;20432;-62
2022/08/29 14:16:10;;;;;;;6.50;3.27;;;;;;;29.22;35.90;96789.34;2066573;28;20451;-62
2022/08/29 14:17:14;;;;;;;5.87;3.63;;;;;;;29.16;37.22;96790.91;2066728;28;20467;-63
2022/08/29 14:18:19;;;;;;;11.50;3.40;;;;;;;30.98;34.91;96789.44;2064681;28;20915;-62
2022/08/29 14:19:24;;;;;;;5.93;3.17;;;;;;;31.95;33.03;96778.94;2065110;28;20440;-62
2022/08/29 14:27:08;;;;;;;5.93;3.00;;;;;;;33.86;31.03;96781.41;2065954;28;20855;-63
2022/08/29 14:28:10;;;;;;;9.53;3.53;;;;;;;33.77;31.02;96777.25;2067321;28;20438;-62
2022/08/29 14:29:16;;;;;;;4.83;3.07;;;;;;;34.08;30.58;96770.28;2065185;28;20432;-63
2022/08/29 14:30:23;;;;;;;12.70;3.20;;;;;;;33.92;29.96;96766.22;2065142;28;20419;-63
2022/08/29 14:31:32;;;;;;;25.23;4.40;;;;;;;31.57;32.87;96765.84;2064067;28;20813;-62
2022/08/29 14:56:03;;;;;;;4.80;2.80;;;;;;;31.75;33.83;96733.78;2068478;28;20392;-65
2022/08/29 14:57:05;;;;;;;4.17;2.90;;;;;;;32.40;33.11;96759.56;2063419;28;20448;-62
2022/08/29 14:58:06;;;;;;;6.27;3.60;;;;;;;32.49;32.67;96761.03;2069693;28;20423;-63
2022/08/29 14:59:08;;;;;;;5.33;3.07;;;;;;;32.96;32.33;96757.59;2069797;28;20432;-63
2022/08/29 15:00:22;;;;;;;4.93;3.50;;;;;;;32.89;32.13;96754.88;2069747;28;20473;-63
2022/08/29 15:01:24;;;;;;;6.37;3.07;;;;;;;32.63;32.76;96752.97;2067624;28;20441;-65
2022/08/29 15:02:26;;;;;;;6.27;3.30;;;;;;;33.13;32.11;96753.41;2066292;28;20455;-65
2022/08/29 15:03:27;;;;;;;10.70;2.80;;;;;;;32.50;32.78;96753.78;2059815;28;20539;-65
2022/08/29 15:04:29;;;;;;;5.97;2.80;;;;;;;32.77;32.29;96759.25;2056040;28;20492;-65
2022/08/29 15:05:37;;;;;;;7.33;3.20;;;;;;;33.13;31.86;96755.28;2062669;28;20836;-65
2022/08/29 15:06:39;;;;;;;5.23;3.03;;;;;;;32.65;32.35;96743.59;2065457;28;20419;-65
2022/08/29 15:07:41;;;;;;;3.60;2.40;;;;;;;32.96;31.83;96733.25;2065868;28;20464;-65
2022/08/29 15:08:44;;;;;;;7.13;3.60;;;;;;;33.28;31.44;96746.97;2055862;28;20444;-63
2022/08/29 15:09:45;;;;;;;6.10;3.37;;;;;;;33.48;31.15;96753.16;2055959;28;20436;-63
2022/08/29 15:10:46;;;;;;;7.10;3.53;;;;;;;33.68;30.98;96744.19;2067800;28;20458;-63
2022/08/29 15:11:48;;;;;;;9.93;3.07;;;;;;;33.68;31.11;96745.00;2067085;28;20447;-63
2022/08/29 15:12:50;;;;;;;9.67;3.20;;;;;;;33.68;30.94;96733.34;2068161;28;21104;-63
2022/08/29 15:13:53;;;;;;;9.27;3.10;;;;;;;33.69;30.92;96725.00;2068799;28;20431;-64
2022/08/29 15:14:55;;;;;;;7.10;2.70;;;;;;;33.67;31.27;96737.09;2068369;28;20423;-63
2022/08/29 15:15:57;;;;;;;6.50;2.57;;;;;;;32.99;31.72;96735.53;2068823;28;21133;-63
2022/08/29 15:16:59;;;;;;;7.70;2.93;;;;;;;33.00;31.79;96721.81;2062966;28;20446;-64
2022/08/29 15:18:04;;;;;;;6.77;2.43;;;;;;;33.58;31.34;96720.25;2066905;28;20566;-64
2022/08/29 15:19:07;;;;;;;6.47;3.20;;;;;;;33.67;30.96;96724.41;2068416;28;20785;-63
2022/08/29 15:20:30;;;;;;;6.93;3.63;;;;;;;33.32;31.62;96729.25;2070016;28;20831;-63
2022/08/29 15:21:36;;;;;;;6.87;3.00;;;;;;;33.24;31.86;96722.19;2070035;28;20533;-63
2022/08/29 15:22:38;;;;;;;11.00;3.03;;;;;;;33.20;31.77;96729.06;2064535;28;20471;-63
2022/08/29 15:23:39;;;;;;;3.30;3.00;;;;;;;33.32;31.43;96713.03;2066874;28;20420;-63
2022/08/29 15:24:46;;;;;;;11.03;3.70;;;;;;;33.40;31.64;96720.13;2065946;28;20431;-63
2022/08/29 15:25:48;;;;;;;8.03;2.87;;;;;;;33.19;31.57;96721.97;2067568;28;20427;-63
2022/08/29 15:26:52;;;;;;;9.70;2.50;;;;;;;32.69;32.03;96734.03;2066195;28;20439;-63
2022/08/29 15:27:54;;;;;;;4.63;2.47;;;;;;;33.09;32.03;96730.53;2067452;28;20936;-63
2022/08/29 15:28:55;;;;;;;5.43;2.90;;;;;;;32.80;32.24;96710.16;2067195;28;20483;-63
2022/08/29 15:29:57;;;;;;;6.53;2.97;;;;;;;32.85;31.95;96726.63;2067938;28;20431;-63
2022/08/29 15:30:59;;;;;;;5.80;3.03;;;;;;;32.68;32.38;96715.34;2069060;28;20453;-63